createdAt,value
2018-05-10T00:00:00.918Z,1021.79
2018-05-10T00:01:00.909Z,1021.83
2018-05-10T00:02:00.906Z,1021.79
2018-05-10T00:03:00.903Z,1021.75
2018-05-10T00:04:00.904Z,1021.78
2018-05-10T00:05:00.895Z,1021.78
2018-05-10T00:06:00.897Z,1021.73
2018-05-10T00:07:00.888Z,1021.77
2018-05-10T00:08:00.890Z,1021.78
2018-05-10T00:09:00.884Z,1021.71
2018-05-10T00:10:00.877Z,1021.69
2018-05-10T00:11:00.878Z,1021.67
2018-05-10T00:12:00.871Z,1021.68
2018-05-10T00:13:00.871Z,1021.67
2018-05-10T00:14:00.864Z,1021.73
2018-05-10T00:15:00.864Z,1021.74
2018-05-10T00:16:00.860Z,1021.72
2018-05-10T00:17:00.851Z,1021.69
2018-05-10T00:18:00.848Z,1021.71
2018-05-10T00:19:00.845Z,1021.69
2018-05-10T00:20:00.845Z,1021.66
2018-05-10T00:21:00.837Z,1021.66
2018-05-10T00:22:00.834Z,1021.67
2018-05-10T00:23:00.835Z,1021.6
2018-05-10T00:24:00.826Z,1021.56
2018-05-10T00:25:00.828Z,1021.51
2018-05-10T00:26:00.819Z,1021.54
2018-05-10T00:27:00.820Z,1021.53
2018-05-10T00:28:00.822Z,1021.51
2018-05-10T00:29:00.812Z,1021.48
2018-05-10T00:30:00.819Z,1021.48
2018-05-10T00:31:00.805Z,1021.48
2018-05-10T00:32:00.901Z,1021.49
2018-05-10T00:33:00.810Z,1021.48
2018-05-10T00:34:00.789Z,1021.48
2018-05-10T00:35:00.791Z,1021.49
2018-05-10T00:36:00.792Z,1021.48
2018-05-10T00:37:00.787Z,1021.47
2018-05-10T00:38:00.775Z,1021.44
2018-05-10T00:39:00.777Z,1021.45
2018-05-10T00:40:00.770Z,1021.44
2018-05-10T00:41:00.770Z,1021.43
2018-05-10T00:42:00.761Z,1021.42
2018-05-10T00:43:00.763Z,1021.4
2018-05-10T00:44:00.755Z,1021.42
2018-05-10T00:45:00.752Z,1021.4
2018-05-10T00:46:00.747Z,1021.38
2018-05-10T00:47:00.749Z,1021.39
2018-05-10T00:48:00.746Z,1021.39
2018-05-10T00:49:00.736Z,1021.36
2018-05-10T00:50:00.735Z,1021.35
2018-05-10T00:51:00.729Z,1021.33
2018-05-10T00:52:00.731Z,1021.32
2018-05-10T00:53:00.722Z,1021.28
2018-05-10T00:54:00.732Z,1021.29
2018-05-10T00:55:00.715Z,1021.3
2018-05-10T00:56:00.717Z,1021.3
2018-05-10T00:57:00.711Z,1021.37
2018-05-10T00:58:00.709Z,1021.34
2018-05-10T00:59:00.701Z,1021.34
2018-05-10T01:00:00.708Z,1021.31
2018-05-10T01:01:00.694Z,1021.31
2018-05-10T01:02:00.690Z,1021.34
2018-05-10T01:03:00.693Z,1021.32
2018-05-10T01:04:00.690Z,1021.32
2018-05-10T01:05:00.686Z,1021.3
2018-05-10T01:06:00.678Z,1021.3
2018-05-10T01:07:00.674Z,1021.27
2018-05-10T01:08:00.677Z,1021.28
2018-05-10T01:09:00.667Z,1021.25
2018-05-10T01:10:00.669Z,1021.23
2018-05-10T01:11:00.659Z,1021.22
2018-05-10T01:12:00.661Z,1021.19
2018-05-10T01:13:00.652Z,1021.18
2018-05-10T01:14:00.655Z,1021.16
2018-05-10T01:15:00.645Z,1021.11
2018-05-10T01:16:00.647Z,1021.12
2018-05-10T01:17:00.644Z,1021.14
2018-05-10T01:18:00.640Z,1021.09
2018-05-10T01:19:00.631Z,1021.11
2018-05-10T01:20:00.628Z,1021.07
2018-05-10T01:21:00.630Z,1021.1
2018-05-10T01:22:00.629Z,1021.08
2018-05-10T01:23:00.626Z,1021.09
2018-05-10T01:24:00.617Z,1021.07
2018-05-10T01:25:00.614Z,1021.1
2018-05-10T01:26:00.611Z,1021.08
2018-05-10T01:27:00.606Z,1021.04
2018-05-10T01:28:00.605Z,1021.02
2018-05-10T01:29:00.596Z,1021.02
2018-05-10T01:30:00.624Z,1021.01
2018-05-10T01:31:00.590Z,1021.04
2018-05-10T01:32:00.592Z,1021
2018-05-10T01:33:00.587Z,1021.01
2018-05-10T01:34:00.585Z,1020.96
2018-05-10T01:35:00.577Z,1020.99
2018-05-10T01:36:00.572Z,1020.99
2018-05-10T01:37:00.574Z,1020.93
2018-05-10T01:38:00.572Z,1020.94
2018-05-10T01:39:00.568Z,1020.96
2018-05-10T01:40:00.560Z,1020.99
2018-05-10T01:41:00.560Z,1020.97
2018-05-10T01:42:00.552Z,1021.02
2018-05-10T01:43:00.571Z,1021.08
2018-05-10T01:44:00.548Z,1021.1
2018-05-10T01:45:00.547Z,1021.15
2018-05-10T01:46:00.538Z,1021.16
2018-05-10T01:47:00.539Z,1021.12
2018-05-10T01:48:00.531Z,1021.16
2018-05-10T01:49:00.528Z,1021.18
2018-05-10T01:50:00.525Z,1021.18
2018-05-10T01:51:00.525Z,1021.23
2018-05-10T01:52:00.517Z,1021.22
2018-05-10T01:53:00.519Z,1021.31
2018-05-10T01:54:00.565Z,1021.4
2018-05-10T01:55:00.513Z,1021.54
2018-05-10T01:56:00.503Z,1021.75
2018-05-10T01:57:00.505Z,1021.85
2018-05-10T01:58:00.495Z,1021.78
2018-05-10T01:59:00.497Z,1021.62
2018-05-10T02:00:00.488Z,1021.45
2018-05-10T02:01:00.491Z,1021.37
2018-05-10T02:02:00.482Z,1021.31
2018-05-10T02:03:00.484Z,1021.3
2018-05-10T02:04:00.474Z,1021.26
2018-05-10T02:05:00.472Z,1021.33
2018-05-10T02:06:00.478Z,1021.41
2018-05-10T02:07:00.471Z,1021.51
2018-05-10T02:08:00.466Z,1021.49
2018-05-10T02:09:00.457Z,1021.39
2018-05-10T02:10:00.453Z,1021.33
2018-05-10T02:11:00.450Z,1021.33
2018-05-10T02:12:00.455Z,1021.27
2018-05-10T02:13:00.442Z,1021.28
2018-05-10T02:14:00.444Z,1021.33
2018-05-10T02:15:00.436Z,1021.4
2018-05-10T02:16:00.438Z,1021.39
2018-05-10T02:17:00.428Z,1021.33
2018-05-10T02:18:00.424Z,1021.25
2018-05-10T02:19:00.427Z,1021.27
2018-05-10T02:20:00.418Z,1021.24
2018-05-10T02:21:00.420Z,1021.24
2018-05-10T02:22:00.410Z,1021.25
2018-05-10T02:23:00.412Z,1021.31
2018-05-10T02:24:00.407Z,1021.3
2018-05-10T02:25:00.399Z,1021.27
2018-05-10T02:26:00.396Z,1021.24
2018-05-10T02:27:00.392Z,1021.27
2018-05-10T02:28:00.394Z,1021.23
2018-05-10T02:29:00.384Z,1021.23
2018-05-10T02:30:00.389Z,1021.24
2018-05-10T02:31:00.378Z,1021.25
2018-05-10T02:32:00.379Z,1021.26
2018-05-10T02:33:00.370Z,1021.23
2018-05-10T02:34:00.373Z,1021.22
2018-05-10T02:35:00.362Z,1021.24
2018-05-10T02:36:00.364Z,1021.19
2018-05-10T02:37:00.443Z,1021.2
2018-05-10T02:38:00.359Z,1021.2
2018-05-10T02:39:00.351Z,1021.23
2018-05-10T02:40:00.351Z,1021.18
2018-05-10T02:41:00.348Z,1021.21
2018-05-10T02:42:00.345Z,1021.17
2018-05-10T02:43:00.339Z,1021.23
2018-05-10T02:44:00.341Z,1021.24
2018-05-10T02:45:00.372Z,1021.21
2018-05-10T02:46:00.340Z,1021.19
2018-05-10T02:47:00.327Z,1021.13
2018-05-10T02:48:00.329Z,1021.17
2018-05-10T02:49:00.320Z,1021.23
2018-05-10T02:50:00.316Z,1021.22
2018-05-10T02:51:00.306Z,1021.22
2018-05-10T02:52:00.308Z,1021.22
2018-05-10T02:53:00.304Z,1021.14
2018-05-10T02:54:00.303Z,1021.15
2018-05-10T02:55:00.298Z,1021.15
2018-05-10T02:56:00.289Z,1021.12
2018-05-10T02:57:00.289Z,1021.11
2018-05-10T02:58:00.295Z,1021.13
2018-05-10T02:59:00.283Z,1021.09
2018-05-10T03:00:00.274Z,1021.09
2018-05-10T03:01:00.276Z,1021.08
2018-05-10T03:02:00.275Z,1021.12
2018-05-10T03:03:00.269Z,1021.12
2018-05-10T03:04:00.265Z,1021.12
2018-05-10T03:05:00.261Z,1021.16
2018-05-10T03:06:00.252Z,1021.19
2018-05-10T03:07:00.254Z,1021.2
2018-05-10T03:08:00.244Z,1021.23
2018-05-10T03:09:00.247Z,1021.25
2018-05-10T03:10:00.244Z,1021.22
2018-05-10T03:11:00.238Z,1021.21
2018-05-10T03:12:00.230Z,1021.24
2018-05-10T03:13:00.233Z,1021.22
2018-05-10T03:14:00.233Z,1021.21
2018-05-10T03:15:00.223Z,1021.19
2018-05-10T03:16:00.216Z,1021.2
2018-05-10T03:17:00.220Z,1021.23
2018-05-10T03:18:00.216Z,1021.22
2018-05-10T03:19:00.210Z,1021.25
2018-05-10T03:20:00.201Z,1021.25
2018-05-10T03:21:00.206Z,1021.22
2018-05-10T03:22:00.193Z,1021.22
2018-05-10T03:23:00.195Z,1021.21
2018-05-10T03:24:00.186Z,1021.15
2018-05-10T03:25:00.182Z,1021.17
2018-05-10T03:26:00.178Z,1021.13
2018-05-10T03:27:00.181Z,1021.12
2018-05-10T03:28:00.177Z,1021.09
2018-05-10T03:29:00.168Z,1021.1
2018-05-10T03:30:00.171Z,1021.09
2018-05-10T03:31:00.165Z,1021.07
2018-05-10T03:32:00.162Z,1021.07
2018-05-10T03:33:00.152Z,1021.08
2018-05-10T03:34:00.149Z,1021.05
2018-05-10T03:35:00.151Z,1021.04
2018-05-10T03:36:00.143Z,1021.04
2018-05-10T03:37:00.143Z,1021.07
2018-05-10T03:38:00.134Z,1021.09
2018-05-10T03:39:00.137Z,1021.06
2018-05-10T03:40:00.128Z,1021.06
2018-05-10T03:41:00.127Z,1021.05
2018-05-10T03:42:00.120Z,1021.07
2018-05-10T03:43:00.122Z,1021.04
2018-05-10T03:44:00.117Z,1021.12
2018-05-10T03:45:00.115Z,1021.12
2018-05-10T03:46:00.112Z,1021.15
2018-05-10T03:47:00.111Z,1021.13
2018-05-10T03:48:00.098Z,1021.09
2018-05-10T03:49:00.099Z,1021.12
2018-05-10T03:50:00.091Z,1021.09
2018-05-10T03:51:00.093Z,1021.06
2018-05-10T03:52:00.084Z,1021.06
2018-05-10T03:53:00.086Z,1021.02
2018-05-10T03:54:00.076Z,1020.96
2018-05-10T03:55:00.077Z,1020.92
2018-05-10T03:56:00.068Z,1020.86
2018-05-10T03:57:00.065Z,1020.85
2018-05-10T03:58:00.062Z,1020.78
2018-05-10T03:59:00.062Z,1020.66
2018-05-10T04:00:00.054Z,1020.55
2018-05-10T04:01:00.056Z,1020.46
2018-05-10T04:02:00.055Z,1020.34
2018-05-10T04:03:00.048Z,1020.28
2018-05-10T04:04:00.041Z,1020.26
2018-05-10T04:05:00.042Z,1020.22
2018-05-10T04:06:00.065Z,1020.23
2018-05-10T04:07:00.035Z,1020.26
2018-05-10T04:08:00.027Z,1020.28
2018-05-10T04:09:00.029Z,1020.28
2018-05-10T04:10:00.065Z,1020.33
2018-05-10T04:11:00.022Z,1020.35
2018-05-10T04:12:00.015Z,1020.37
2018-05-10T04:13:00.011Z,1020.41
2018-05-10T04:14:00.009Z,1020.41
2018-05-10T04:15:00.018Z,1020.46
2018-05-10T04:16:00.008Z,1020.51
2018-05-10T04:16:59.998Z,1020.56
2018-05-10T04:17:59.996Z,1020.63
2018-05-10T04:18:59.993Z,1020.6
2018-05-10T04:19:59.995Z,1020.62
2018-05-10T04:20:59.987Z,1020.59
2018-05-10T04:21:59.989Z,1020.57
2018-05-10T04:22:59.982Z,1020.54
2018-05-10T04:23:59.982Z,1020.56
2018-05-10T04:24:59.977Z,1020.57
2018-05-10T04:25:59.972Z,1020.57
2018-05-10T04:26:59.975Z,1020.56
2018-05-10T04:27:59.965Z,1020.54
2018-05-10T04:28:59.962Z,1020.57
2018-05-10T04:29:59.959Z,1020.56
2018-05-10T04:30:59.963Z,1020.56
2018-05-10T04:31:59.959Z,1020.54
2018-05-10T04:32:59.950Z,1020.55
2018-05-10T04:33:59.947Z,1020.57
2018-05-10T04:34:59.944Z,1020.62
2018-05-10T04:35:59.946Z,1020.63
2018-05-10T04:36:59.938Z,1020.59
2018-05-10T04:37:59.941Z,1020.57
2018-05-10T04:38:59.932Z,1020.56
2018-05-10T04:39:59.934Z,1020.54
2018-05-10T04:40:59.931Z,1020.54
2018-05-10T04:41:59.928Z,1020.52
2018-05-10T04:42:59.920Z,1020.51
2018-05-10T04:43:59.922Z,1020.5
2018-05-10T04:44:59.919Z,1020.53
2018-05-10T04:45:59.921Z,1020.52
2018-05-10T04:46:59.911Z,1020.6
2018-05-10T04:47:59.904Z,1020.57
2018-05-10T04:48:59.906Z,1020.54
2018-05-10T04:49:59.903Z,1020.61
2018-05-10T04:50:59.895Z,1020.59
2018-05-10T04:51:59.897Z,1020.6
2018-05-10T04:52:59.889Z,1020.57
2018-05-10T04:53:59.891Z,1020.57
2018-05-10T04:54:59.883Z,1020.57
2018-05-10T04:55:59.886Z,1020.53
2018-05-10T04:56:59.876Z,1020.47
2018-05-10T04:57:59.878Z,1020.47
2018-05-10T04:58:59.871Z,1020.4
2018-05-10T04:59:59.874Z,1020.35
2018-05-10T05:00:59.869Z,1020.32
2018-05-10T05:01:59.867Z,1020.31
2018-05-10T05:02:59.859Z,1020.27
2018-05-10T05:03:59.861Z,1020.26
2018-05-10T05:04:59.857Z,1020.21
2018-05-10T05:05:59.855Z,1020.19
2018-05-10T05:06:59.857Z,1020.18
2018-05-10T05:07:59.844Z,1020.19
2018-05-10T05:08:59.854Z,1020.15
2018-05-10T05:09:59.842Z,1020.15
2018-05-10T05:10:59.842Z,1020.13
2018-05-10T05:11:59.934Z,1020.13
2018-05-10T05:12:59.836Z,1020.13
2018-05-10T05:13:59.827Z,1020.14
2018-05-10T05:14:59.830Z,1020.17
2018-05-10T05:15:59.823Z,1020.12
2018-05-10T05:16:59.824Z,1020.11
2018-05-10T05:17:59.822Z,1020.08
2018-05-10T05:18:59.814Z,1020.01
2018-05-10T05:19:59.812Z,1019.98
2018-05-10T05:20:59.815Z,1019.94
2018-05-10T05:21:59.818Z,1019.93
2018-05-10T05:22:59.841Z,1019.86
2018-05-10T05:23:59.801Z,1019.86
2018-05-10T05:24:59.805Z,1019.86
2018-05-10T05:25:59.797Z,1019.88
2018-05-10T05:26:59.799Z,1019.89
2018-05-10T05:27:59.792Z,1019.84
2018-05-10T05:28:59.796Z,1019.86
2018-05-10T05:29:59.787Z,1019.84
2018-05-10T05:30:59.792Z,1019.8
2018-05-10T05:31:59.794Z,1019.81
2018-05-10T05:32:59.782Z,1019.79
2018-05-10T05:33:59.779Z,1019.79
2018-05-10T05:34:59.782Z,1019.8
2018-05-10T05:35:59.784Z,1019.8
2018-05-10T05:36:59.773Z,1019.83
2018-05-10T05:37:59.770Z,1019.84
2018-05-10T05:38:59.769Z,1019.84
2018-05-10T05:39:59.774Z,1019.84
2018-05-10T05:40:59.859Z,1019.85
2018-05-10T05:41:59.762Z,1019.81
2018-05-10T05:42:59.766Z,1019.74
2018-05-10T05:43:59.760Z,1019.7
2018-05-10T05:44:59.761Z,1019.63
2018-05-10T05:45:59.755Z,1019.59
2018-05-10T05:46:59.758Z,1019.48
2018-05-10T05:47:59.752Z,1019.45
2018-05-10T05:48:59.750Z,1019.4
2018-05-10T05:49:59.752Z,1019.39
2018-05-10T05:50:59.753Z,1019.36
2018-05-10T05:51:59.750Z,1019.12
2018-05-10T05:52:59.749Z,1019.05
2018-05-10T05:53:59.743Z,1019.02
2018-05-10T05:54:59.823Z,1018.89
2018-05-10T05:55:59.744Z,1018.88
2018-05-10T05:56:59.739Z,1018.83
2018-05-10T05:57:59.743Z,1019.02
2018-05-10T05:58:59.736Z,1018.75
2018-05-10T05:59:59.741Z,1018.64
2018-05-10T06:00:59.734Z,1018.63
2018-05-10T06:01:59.740Z,1018.65
2018-05-10T06:02:59.734Z,1018.61
2018-05-10T06:03:59.738Z,1018.62
2018-05-10T06:04:59.741Z,1018.55
2018-05-10T06:05:59.737Z,1018.4
2018-05-10T06:06:59.731Z,1018.41
2018-05-10T06:07:59.736Z,1018.39
2018-05-10T06:08:59.731Z,1018.37
2018-05-10T06:09:59.730Z,1018.38
2018-05-10T06:10:59.732Z,1018.41
2018-05-10T06:11:59.737Z,1018.41
2018-05-10T06:12:59.732Z,1018.47
2018-05-10T06:13:59.737Z,1018.46
2018-05-10T06:14:59.733Z,1018.47
2018-05-10T06:15:59.831Z,1018.51
2018-05-10T06:16:59.734Z,1018.49
2018-05-10T06:17:59.739Z,1018.48
2018-05-10T06:18:59.740Z,1018.47
2018-05-10T06:19:59.741Z,1018.45
2018-05-10T06:20:59.746Z,1018.36
2018-05-10T06:21:59.741Z,1018.33
2018-05-10T06:22:59.738Z,1018.22
2018-05-10T06:23:59.739Z,1018.22
2018-05-10T06:24:59.800Z,1018.16
2018-05-10T06:25:59.750Z,1018.19
2018-05-10T06:26:59.747Z,1018.17
2018-05-10T06:27:59.745Z,1018.12
2018-05-10T06:28:59.748Z,1018.03
2018-05-10T06:29:59.746Z,1017.93
2018-05-10T06:30:59.752Z,1017.87
2018-05-10T06:31:59.747Z,1017.85
2018-05-10T06:32:59.754Z,1017.68
2018-05-10T06:33:59.804Z,1017.63
2018-05-10T06:34:59.752Z,1017.66
2018-05-10T06:35:59.758Z,1017.58
2018-05-10T06:36:59.761Z,1017.49
2018-05-10T06:37:59.764Z,1017.52
2018-05-10T06:38:59.759Z,1017.48
2018-05-10T06:39:59.762Z,1017.29
2018-05-10T06:40:59.769Z,1016.91
2018-05-10T06:41:59.772Z,1016.71
2018-05-10T06:42:59.774Z,1016.45
2018-05-10T06:43:59.773Z,1015.86
2018-05-10T06:44:59.786Z,1015.49
2018-05-10T06:45:59.780Z,1015.12
2018-05-10T06:46:59.790Z,1014.83
2018-05-10T06:47:59.790Z,1014.59
2018-05-10T06:48:59.801Z,1014.39
2018-05-10T06:49:59.802Z,1014.14
2018-05-10T06:50:59.812Z,1013.93
2018-05-10T06:51:59.813Z,1013.71
2018-05-10T06:52:59.821Z,1013.46
2018-05-10T06:53:59.828Z,1013.29
2018-05-10T06:54:59.842Z,1013.12
2018-05-10T06:55:59.851Z,1012.98
2018-05-10T06:56:59.856Z,1012.9
2018-05-10T06:57:59.864Z,1012.83
2018-05-10T06:58:59.878Z,1012.78
2018-05-10T06:59:59.883Z,1012.79
2018-05-10T07:00:59.900Z,1012.8
2018-05-10T07:01:59.907Z,1012.84
2018-05-10T07:02:59.920Z,1012.81
2018-05-10T07:03:59.929Z,1012.74
2018-05-10T07:04:59.942Z,1012.72
2018-05-10T07:05:59.953Z,1012.7
2018-05-10T07:06:59.965Z,1012.73
2018-05-10T07:07:59.972Z,1012.75
2018-05-10T07:08:59.983Z,1013.1
2018-05-10T07:10:00.223Z,1013.1
2018-05-10T07:11:00.013Z,1012.99
2018-05-10T07:12:00.019Z,1013.23
2018-05-10T07:13:00.036Z,1013.3
2018-05-10T07:14:00.049Z,1013.24
2018-05-10T07:15:00.061Z,1013.6
2018-05-10T07:16:00.068Z,1013.69
2018-05-10T07:17:00.086Z,1013.68
2018-05-10T07:18:00.093Z,1013.23
2018-05-10T07:19:00.110Z,1013.61
2018-05-10T07:20:00.116Z,1014.34
2018-05-10T07:21:00.135Z,1014.53
2018-05-10T07:22:00.141Z,1014.16
2018-05-10T07:23:00.160Z,1014.47
2018-05-10T07:24:00.165Z,1014.97
2018-05-10T07:25:00.256Z,1014.78
2018-05-10T07:26:00.196Z,1014.81
2018-05-10T07:27:00.202Z,1015.07
2018-05-10T07:28:00.212Z,1015.34
2018-05-10T07:29:00.229Z,1015.43
2018-05-10T07:30:00.241Z,1015.43
2018-05-10T07:31:00.253Z,1015.42
2018-05-10T07:32:00.258Z,1014.85
2018-05-10T07:33:00.308Z,1014.64
2018-05-10T07:34:00.279Z,1014.64
2018-05-10T07:35:00.295Z,1014.43
2018-05-10T07:36:00.304Z,1013.99
2018-05-10T07:37:00.319Z,1013.78
2018-05-10T07:38:00.323Z,1013.53
2018-05-10T07:39:00.344Z,1013.42
2018-05-10T07:40:00.347Z,1013.32
2018-05-10T07:41:00.359Z,1013.09
2018-05-10T07:42:00.460Z,1012.99
2018-05-10T07:43:00.392Z,1012.86
2018-05-10T07:44:00.401Z,1012.75
2018-05-10T07:45:00.408Z,1012.63
2018-05-10T07:46:00.422Z,1012.62
2018-05-10T07:47:00.433Z,1012.56
2018-05-10T07:48:00.450Z,1012.73
2018-05-10T07:49:00.456Z,1012.58
2018-05-10T07:50:00.474Z,1012.62
2018-05-10T07:51:00.489Z,1012.62
2018-05-10T07:52:00.496Z,1012.68
2018-05-10T07:53:00.515Z,1012.77
2018-05-10T07:54:00.523Z,1012.79
2018-05-10T07:55:00.541Z,1012.72
2018-05-10T07:56:00.548Z,1012.75
2018-05-10T07:57:00.563Z,1012.66
2018-05-10T07:58:00.576Z,1012.62
2018-05-10T07:59:00.595Z,1012.44
2018-05-10T08:00:00.608Z,1012.17
2018-05-10T08:01:00.616Z,1012.04
2018-05-10T08:02:00.631Z,1012.58
2018-05-10T08:03:00.643Z,1012.86
2018-05-10T08:04:00.667Z,1013.39
2018-05-10T08:05:00.670Z,1013.43
2018-05-10T08:06:00.688Z,1013.64
2018-05-10T08:07:00.694Z,1014.14
2018-05-10T08:08:00.713Z,1014.41
2018-05-10T08:09:00.721Z,1013.95
2018-05-10T08:10:00.812Z,1014.21
2018-05-10T08:11:00.745Z,1014.5
2018-05-10T08:12:00.763Z,1014.8
2018-05-10T08:13:00.778Z,1015.03
2018-05-10T08:14:00.802Z,1014.91
2018-05-10T08:15:00.797Z,1014.57
2018-05-10T08:16:00.810Z,1014.41
2018-05-10T08:17:00.877Z,1014.76
2018-05-10T08:18:00.838Z,1014.7
2018-05-10T08:19:00.840Z,1014.37
2018-05-10T08:20:00.857Z,1014.52
2018-05-10T08:21:00.863Z,1014.54
2018-05-10T08:22:00.878Z,1014.37
2018-05-10T08:23:00.885Z,1014.28
2018-05-10T08:24:00.904Z,1014.22
2018-05-10T08:25:00.909Z,1013.87
2018-05-10T08:26:00.925Z,1013.56
2018-05-10T08:27:00.931Z,1013.45
2018-05-10T08:28:00.948Z,1013.14
2018-05-10T08:29:00.958Z,1012.97
2018-05-10T08:30:00.970Z,1012.78
2018-05-10T08:31:00.977Z,1012.66
2018-05-10T08:32:00.989Z,1012.57
2018-05-10T08:33:01.014Z,1012.46
2018-05-10T08:34:01.018Z,1012.27
2018-05-10T08:35:01.031Z,1012.31
2018-05-10T08:36:01.041Z,1012.19
2018-05-10T08:37:01.055Z,1012.16
2018-05-10T08:38:01.063Z,1012.46
2018-05-10T08:39:01.088Z,1012.77
2018-05-10T08:40:01.094Z,1013.33
2018-05-10T08:41:01.104Z,1013.91
2018-05-10T08:42:01.117Z,1014.54
2018-05-10T08:43:01.124Z,1015.09
2018-05-10T08:44:01.142Z,1015.48
2018-05-10T08:45:01.236Z,1015.87
2018-05-10T08:46:01.167Z,1016.25
2018-05-10T08:47:01.172Z,1016.48
2018-05-10T08:48:01.182Z,1016.79
2018-05-10T08:49:01.201Z,1017
2018-05-10T08:50:01.209Z,1017.24
2018-05-10T08:51:01.226Z,1017.45
2018-05-10T08:52:01.236Z,1017.58
2018-05-10T08:53:01.239Z,1017.7
2018-05-10T08:54:01.244Z,1017.78
2018-05-10T08:55:01.256Z,1017.92
2018-05-10T08:56:01.261Z,1018.06
2018-05-10T08:57:01.274Z,1018.2
2018-05-10T08:58:01.278Z,1018.3
2018-05-10T08:59:01.291Z,1018.35
2018-05-10T09:00:01.347Z,1018.47
2018-05-10T09:01:01.303Z,1018.61
2018-05-10T09:02:01.309Z,1018.73
2018-05-10T09:03:01.322Z,1018.84
2018-05-10T09:04:01.329Z,1018.85
2018-05-10T09:05:01.330Z,1018.94
2018-05-10T09:06:01.338Z,1019.02
2018-05-10T09:07:01.347Z,1019
2018-05-10T09:08:01.349Z,1019.06
2018-05-10T09:09:01.359Z,1019.12
2018-05-10T09:10:01.359Z,1019.16
2018-05-10T09:11:01.370Z,1019.17
2018-05-10T09:12:01.378Z,1019.15
2018-05-10T09:13:01.380Z,1019.11
2018-05-10T09:14:01.386Z,1019.21
2018-05-10T09:15:01.385Z,1019.23
2018-05-10T09:16:01.408Z,1019.35
2018-05-10T09:17:01.395Z,1019.38
2018-05-10T09:18:01.403Z,1019.42
2018-05-10T09:19:01.402Z,1019.47
2018-05-10T09:20:01.422Z,1019.46
2018-05-10T09:21:01.411Z,1019.51
2018-05-10T09:22:01.420Z,1019.48
2018-05-10T09:23:01.423Z,1019.42
2018-05-10T09:24:01.423Z,1019.42
2018-05-10T09:25:01.427Z,1019.36
2018-05-10T09:26:01.438Z,1019.33
2018-05-10T09:27:01.439Z,1019.33
2018-05-10T09:28:01.438Z,1019.37
2018-05-10T09:29:01.441Z,1019.35
2018-05-10T09:30:01.445Z,1019.31
2018-05-10T09:31:01.453Z,1019.3
2018-05-10T09:32:01.456Z,1019.3
2018-05-10T09:33:01.456Z,1019.26
2018-05-10T09:34:01.466Z,1019.25
2018-05-10T09:35:01.472Z,1019.28
2018-05-10T09:36:01.475Z,1019.22
2018-05-10T09:37:01.470Z,1019.23
2018-05-10T09:38:01.477Z,1019.23
2018-05-10T09:39:01.475Z,1019.22
2018-05-10T09:40:01.479Z,1019.25
2018-05-10T09:41:01.482Z,1019.22
2018-05-10T09:42:01.489Z,1019.21
2018-05-10T09:43:01.493Z,1019.16
2018-05-10T09:44:01.491Z,1019.18
2018-05-10T09:45:01.501Z,1019.11
2018-05-10T09:46:01.497Z,1019.09
2018-05-10T09:47:01.505Z,1019.08
2018-05-10T09:48:01.504Z,1019.08
2018-05-10T09:49:01.515Z,1019.08
2018-05-10T09:50:01.515Z,1019.08
2018-05-10T09:51:01.520Z,1019.04
2018-05-10T09:52:01.516Z,1019.15
2018-05-10T09:53:01.521Z,1019.11
2018-05-10T09:54:01.529Z,1019.09
2018-05-10T09:55:01.532Z,1019.1
2018-05-10T09:56:01.536Z,1019.07
2018-05-10T09:57:01.536Z,1019.03
2018-05-10T09:58:01.542Z,1019.05
2018-05-10T09:59:01.551Z,1019.03
2018-05-10T10:00:01.544Z,1019.01
2018-05-10T10:01:01.552Z,1019.07
2018-05-10T10:02:01.629Z,1019.09
2018-05-10T10:03:01.559Z,1019.09
2018-05-10T10:04:01.556Z,1019.09
2018-05-10T10:05:01.566Z,1019.04
2018-05-10T10:06:01.569Z,1019
2018-05-10T10:07:01.573Z,1018.91
2018-05-10T10:08:01.570Z,1018.93
2018-05-10T10:09:01.574Z,1018.86
2018-05-10T10:10:01.582Z,1018.86
2018-05-10T10:11:01.590Z,1018.88
2018-05-10T10:12:01.589Z,1018.82
2018-05-10T10:13:01.589Z,1018.81
2018-05-10T10:14:01.597Z,1018.77
2018-05-10T10:15:01.594Z,1018.75
2018-05-10T10:16:01.603Z,1018.79
2018-05-10T10:17:01.603Z,1018.72
2018-05-10T10:18:01.611Z,1018.79
2018-05-10T10:19:01.608Z,1018.75
2018-05-10T10:20:01.618Z,1018.76
2018-05-10T10:21:01.616Z,1018.75
2018-05-10T10:22:01.620Z,1018.73
2018-05-10T10:23:01.623Z,1018.71
2018-05-10T10:24:01.634Z,1018.69
2018-05-10T10:25:01.632Z,1018.78
2018-05-10T10:26:01.639Z,1018.75
2018-05-10T10:27:01.644Z,1018.74
2018-05-10T10:28:01.647Z,1018.73
2018-05-10T10:29:01.651Z,1018.82
2018-05-10T10:30:01.655Z,1018.79
2018-05-10T10:31:01.659Z,1018.77
2018-05-10T10:32:01.663Z,1018.78
2018-05-10T10:33:01.664Z,1018.82
2018-05-10T10:34:01.672Z,1018.9
2018-05-10T10:35:01.679Z,1018.8
2018-05-10T10:36:01.679Z,1018.97
2018-05-10T10:37:01.677Z,1019.02
2018-05-10T10:38:01.687Z,1018.98
2018-05-10T10:39:01.690Z,1018.98
2018-05-10T10:40:01.710Z,1018.97
2018-05-10T10:41:01.704Z,1019
2018-05-10T10:42:01.701Z,1019
2018-05-10T10:43:01.705Z,1018.89
2018-05-10T10:44:01.712Z,1018.79
2018-05-10T10:45:01.736Z,1018.78
2018-05-10T10:46:01.716Z,1018.72
2018-05-10T10:47:01.714Z,1018.74
2018-05-10T10:48:01.723Z,1018.73
2018-05-10T10:49:01.737Z,1018.73
2018-05-10T10:50:01.730Z,1018.72
2018-05-10T10:51:01.735Z,1018.66
2018-05-10T10:52:01.732Z,1018.58
2018-05-10T10:53:01.742Z,1018.52
2018-05-10T10:54:01.746Z,1018.48
2018-05-10T10:55:01.759Z,1018.48
2018-05-10T10:56:01.748Z,1018.46
2018-05-10T10:57:01.751Z,1018.42
2018-05-10T10:58:01.760Z,1018.44
2018-05-10T10:59:01.763Z,1018.41
2018-05-10T11:00:01.786Z,1018.41
2018-05-10T11:01:01.767Z,1018.36
2018-05-10T11:02:01.779Z,1018.38
2018-05-10T11:03:01.774Z,1018.37
2018-05-10T11:04:01.785Z,1018.35
2018-05-10T11:05:01.782Z,1018.27
2018-05-10T11:06:01.792Z,1018.24
2018-05-10T11:07:01.793Z,1018.27
2018-05-10T11:08:01.799Z,1018.25
2018-05-10T11:09:01.799Z,1018.12
2018-05-10T11:10:01.803Z,1018.07
2018-05-10T11:11:01.810Z,1018.06
2018-05-10T11:12:01.816Z,1018.01
2018-05-10T11:13:01.820Z,1018.01
2018-05-10T11:14:01.819Z,1018
2018-05-10T11:15:01.857Z,1018.03
2018-05-10T11:16:01.833Z,1017.99
2018-05-10T11:17:01.835Z,1017.99
2018-05-10T11:18:01.847Z,1017.98
2018-05-10T11:19:01.842Z,1018.02
2018-05-10T11:20:01.855Z,1018
2018-05-10T11:21:01.852Z,1018.06
2018-05-10T11:22:01.860Z,1018.08
2018-05-10T11:23:01.859Z,1017.98
2018-05-10T11:24:01.872Z,1017.96
2018-05-10T11:25:01.870Z,1017.89
2018-05-10T11:26:01.873Z,1017.9
2018-05-10T11:27:01.878Z,1017.85
2018-05-10T11:28:01.895Z,1017.8
2018-05-10T11:29:01.894Z,1017.75
2018-05-10T11:30:01.892Z,1017.75
2018-05-10T11:31:01.898Z,1017.73
2018-05-10T11:32:01.903Z,1017.68
2018-05-10T11:33:01.971Z,1017.66
2018-05-10T11:34:01.913Z,1017.62
2018-05-10T11:35:01.924Z,1017.59
2018-05-10T11:36:01.922Z,1017.52
2018-05-10T11:37:01.933Z,1017.55
2018-05-10T11:38:01.937Z,1017.53
2018-05-10T11:39:01.977Z,1017.57
2018-05-10T11:40:01.943Z,1017.58
2018-05-10T11:41:01.954Z,1017.56
2018-05-10T11:42:01.954Z,1017.56
2018-05-10T11:43:01.979Z,1017.59
2018-05-10T11:44:01.981Z,1017.54
2018-05-10T11:45:01.975Z,1017.49
2018-05-10T11:46:01.977Z,1017.46
2018-05-10T11:47:01.980Z,1017.42
2018-05-10T11:48:01.994Z,1017.4
2018-05-10T11:49:01.998Z,1017.4
2018-05-10T11:50:02.000Z,1017.36
2018-05-10T11:51:02.008Z,1017.35
2018-05-10T11:52:02.035Z,1017.29
2018-05-10T11:53:02.030Z,1017.26
2018-05-10T11:54:02.025Z,1017.27
2018-05-10T11:55:02.030Z,1017.3
2018-05-10T11:56:02.033Z,1017.36
2018-05-10T11:57:02.042Z,1017.29
2018-05-10T11:58:02.048Z,1017.29
2018-05-10T11:59:02.053Z,1017.27
2018-05-10T12:00:02.054Z,1017.24
2018-05-10T12:01:02.059Z,1017.25
2018-05-10T12:02:02.084Z,1017.21
2018-05-10T12:03:02.077Z,1017.28
2018-05-10T12:04:02.083Z,1017.35
2018-05-10T12:05:02.083Z,1017.4
2018-05-10T12:06:02.155Z,1017.5
2018-05-10T12:07:02.101Z,1017.58
2018-05-10T12:08:02.101Z,1017.62